Terminal Aerodrome Forecast
Issued by NWS Wilmington, NC

Home | Current Version | Previous Version | Text Only | Print | Product List | Glossary On
Versions: 1 2 3 4 5 6 7 8 9 10 11 12 13 14 15 16 17
636
FTUS42 KILM 271120
TAFILM
TAF
KILM 271120Z 2712/2812 13005KT P6SM SCT200
     FM271900 14008KT P6SM SCT120 BKN200
     FM280300 14002KT P6SM SCT030 BKN100
      TEMPO 2808/2812 4SM -RA OVC050=

USA.gov is the U.S. government's official web portal to all federal, state and local government web resources and services.